KCCY/CCY METAR and TAF weather

Enter ICAO airport designator
Station Type Date Time Source
KCCY METAR 2018/01/22 11:55 UTC NOAA

KCCY 221155Z AUTO 06020G28KT 3SM RA OVC007 02/02 A2956 RMK AO2 P0022


Station Type Date Time Source
KCCY Decoded METAR 2018/01/22 11:55 UTC NOAA

Charles City, IA, United States (KCCY) 43-04N 092-37W
Jan 22, 2018 - 06:55 AM EST / 2018.01.22 1155 UTC
Wind: from the ENE (060 degrees) at 23 MPH (20 KT) gusting to 32 MPH (28 KT):0
Visibility: 3 mile(s):0
Sky conditions: overcast
Weather: rain
Precipitation last hour: 0.22 inches
Temperature: 35 F (2 C)
Windchill: 23 F (-5 C):1
Dew Point: 35 F (2 C)
Relative Humidity: 100%
Pressure (altimeter): 29.56 in. Hg (1001 hPa)
ob: KCCY 221155Z AUTO 06020G28KT 3SM RA OVC007 02/02 A2956 RMK AO2 P0022
cycle: 12

Station Type Date Time Source
KCCY TAF UTC NOAA

Error!


Example: see airport list